Time;durP1;ratioP1;P1;durP2;ratioP2;P2;SDS_P1;SDS_P2;PMS_P1;PMS_P2;Temp;Humidity;BMP_temperature;BMP_pressure;BME280_temperature;BME280_humidity;BME280_pressure;Samples;Min_cycle;Max_cycle;Signal;HPM_P1;HPM_P2
2023/01/11 00:49:16;;;;;;;2.50;2.00;;;;;;;;;;6282015;22;20007;-80
2023/01/11 00:51:42;;;;;;;2.40;1.90;;;;;;;;;;6283871;22;20003;-80
2023/01/11 00:54:07;;;;;;;1.90;1.60;;;;;;;;;;6282274;22;20019;-80
2023/01/11 00:56:33;;;;;;;1.88;1.65;;;;;;;;;;6283697;22;20039;-80
2023/01/11 00:58:58;;;;;;;2.22;1.70;;;;;;;;;;6231390;22;19991;-80
2023/01/11 01:01:24;;;;;;;2.38;1.80;;;;;;;;;;6283426;22;20007;-80
2023/01/11 01:03:49;;;;;;;2.10;1.67;;;;;;;;;;6281895;22;20003;-79
2023/01/11 01:06:14;;;;;;;1.95;1.67;;;;;;;;;;6283684;22;20022;-80
2023/01/11 01:08:40;;;;;;;1.73;1.40;;;;;;;;;;6282169;22;20086;-80
2023/01/11 01:11:05;;;;;;;2.00;1.70;;;;;;;;;;6281888;22;20065;-80
2023/01/11 01:16:15;;;;;;;2.45;1.73;;;;;;;;;;6283873;22;20046;-80
2023/01/11 01:18:40;;;;;;;2.22;1.58;;;;;;;;;;6257109;22;20004;-80
2023/01/11 01:21:06;;;;;;;3.17;1.45;;;;;;;;;;6285135;22;20000;-79
2023/01/11 01:23:31;;;;;;;2.83;1.83;;;;;;;;;;6285679;22;20078;-80
2023/01/11 01:25:56;;;;;;;2.28;1.67;;;;;;;;;;6286759;22;20003;-81
2023/01/11 01:28:23;;;;;;;2.60;1.60;;;;;;;;;;6285711;22;20493;-79
2023/01/11 01:30:50;;;;;;;2.15;1.67;;;;;;;;;;6286787;22;20329;-79
2023/01/11 01:33:15;;;;;;;2.88;1.70;;;;;;;;;;6287414;22;20007;-80
2023/01/11 01:35:41;;;;;;;2.45;1.90;;;;;;;;;;6283445;22;20338;-80
2023/01/11 01:38:06;;;;;;;2.72;1.80;;;;;;;;;;6283367;22;20042;-80
2023/01/11 01:40:32;;;;;;;2.05;1.67;;;;;;;;;;6283488;22;20003;-80
2023/01/11 01:42:57;;;;;;;1.70;1.60;;;;;;;;;;6280928;22;20422;-80
2023/01/11 01:45:23;;;;;;;2.10;1.88;;;;;;;;;;6276215;22;20129;-80
2023/01/11 01:47:53;;;;;;;1.98;1.77;;;;;;;;;;6249349;22;19998;-81
2023/01/11 01:50:26;;;;;;;2.30;2.05;;;;;;;;;;6249492;22;20014;-79
2023/01/11 01:52:54;;;;;;;3.03;2.03;;;;;;;;;;6249907;22;20007;-80
2023/01/11 01:55:24;;;;;;;2.20;1.90;;;;;;;;;;6249441;22;20399;-80
2023/01/11 01:57:49;;;;;;;3.15;2.10;;;;;;;;;;6224582;22;20000;-81
2023/01/11 02:00:15;;;;;;;3.53;2.22;;;;;;;;;;6224044;22;20453;-80
2023/01/11 02:02:40;;;;;;;2.65;1.98;;;;;;;;;;6223763;22;20346;-80
2023/01/11 02:05:06;;;;;;;3.38;1.50;;;;;;;;;;6249273;22;20008;-79
2023/01/11 02:07:33;;;;;;;3.42;2.10;;;;;;;;;;6223998;22;20007;-80
2023/01/11 02:10:19;;;;;;;5.68;2.95;;;;;;;;;;6223649;22;20071;-80
2023/01/11 02:13:02;;;;;;;2.45;1.88;;;;;;;;;;6275894;22;20007;-80
2023/01/11 02:15:27;;;;;;;8.65;3.03;;;;;;;;;;6225401;22;20000;-80
2023/01/11 02:17:53;;;;;;;3.28;2.05;;;;;;;;;;6223994;22;20003;-80
2023/01/11 02:20:51;;;;;;;3.28;2.00;;;;;;;;;;6248885;22;20003;-80
2023/01/11 02:23:46;;;;;;;2.05;1.40;;;;;;;;;;6225833;22;20086;-80
2023/01/11 02:26:33;;;;;;;1.80;1.50;;;;;;;;;;6253335;22;20031;-80
2023/01/11 02:29:20;;;;;;;2.50;1.48;;;;;;;;;;6224467;22;20082;-80
2023/01/11 02:31:58;;;;;;;1.85;1.48;;;;;;;;;;6276115;22;20069;-80
2023/01/11 02:34:36;;;;;;;1.63;1.50;;;;;;;;;;6225544;22;20003;-80
2023/01/11 02:37:10;;;;;;;2.13;1.60;;;;;;;;;;6275956;22;20004;-80
2023/01/11 02:40:30;;;;;;;1.98;1.55;;;;;;;;;;6249087;22;19996;-80
2023/01/11 02:46:05;;;;;;;1.95;1.50;;;;;;;;;;6250107;22;20412;-80
2023/01/11 02:48:34;;;;;;;2.47;1.80;;;;;;;;;;6226671;22;20010;-80
2023/01/11 02:51:06;;;;;;;1.67;1.58;;;;;;;;;;6198819;22;20029;-80
2023/01/11 02:53:42;;;;;;;2.88;1.90;;;;;;;;;;6223891;22;20471;-79
2023/01/11 02:56:10;;;;;;;3.00;1.98;;;;;;;;;;6249761;22;20083;-80
2023/01/11 02:58:36;;;;;;;2.03;1.70;;;;;;;;;;6248843;22;20003;-80
2023/01/11 03:01:02;;;;;;;3.00;1.50;;;;;;;;;;6248821;22;20004;-80
2023/01/11 03:03:28;;;;;;;1.60;1.50;;;;;;;;;;6223206;22;20004;-80
2023/01/11 03:06:03;;;;;;;2.30;2.10;;;;;;;;;;6275579;22;20010;-80
2023/01/11 03:08:50;;;;;;;1.92;1.73;;;;;;;;;;6224702;22;20006;-80
2023/01/11 03:14:44;;;;;;;1.98;1.23;;;;;;;;;;6197406;22;20067;-80
2023/01/11 03:17:29;;;;;;;3.63;1.30;;;;;;;;;;6221518;22;20082;-79
2023/01/11 03:20:08;;;;;;;1.60;1.20;;;;;;;;;;6248709;22;19999;-80
2023/01/11 03:23:06;;;;;;;1.60;1.30;;;;;;;;;;6248760;22;20061;-80
2023/01/11 03:25:51;;;;;;;1.70;1.17;;;;;;;;;;6237064;22;20023;-80
2023/01/11 03:28:25;;;;;;;1.40;1.10;;;;;;;;;;6275264;22;20010;-80
2023/01/11 03:30:58;;;;;;;1.10;1.00;;;;;;;;;;6248767;22;20074;-80
2023/01/11 03:33:42;;;;;;;1.42;1.10;;;;;;;;;;6248371;22;20441;-80
2023/01/11 03:36:16;;;;;;;1.75;1.40;;;;;;;;;;6247987;22;20453;-79
2023/01/11 03:38:47;;;;;;;3.03;1.40;;;;;;;;;;6248981;22;20010;-79
2023/01/11 03:41:14;;;;;;;;;;;;;;;;;;6223265;22;20000;-79
2023/01/11 03:43:40;;;;;;;1.98;1.42;;;;;;;;;;6266744;22;19981;-79
2023/01/11 03:46:10;;;;;;;1.60;1.50;;;;;;;;;;6248489;22;19995;-79
2023/01/11 03:49:01;;;;;;;4.40;1.60;;;;;;;;;;6248482;22;20008;-79
2023/01/11 03:51:28;;;;;;;1.75;1.58;;;;;;;;;;6252837;22;20089;-79
2023/01/11 03:53:58;;;;;;;2.33;1.90;;;;;;;;;;6248013;22;20008;-79
2023/01/11 03:56:28;;;;;;;1.63;1.50;;;;;;;;;;6222855;22;20057;-79
2023/01/11 03:58:54;;;;;;;2.05;1.10;;;;;;;;;;6248119;22;20323;-79
2023/01/11 04:01:19;;;;;;;2.53;1.75;;;;;;;;;;6274926;22;19999;-79
2023/01/11 04:03:44;;;;;;;2.35;1.80;;;;;;;;;;6248523;22;20104;-79
2023/01/11 04:06:10;;;;;;;4.40;1.85;;;;;;;;;;6248152;22;20342;-79
2023/01/11 04:08:35;;;;;;;1.88;1.42;;;;;;;;;;6248056;22;20484;-79
2023/01/11 04:11:03;;;;;;;2.38;1.80;;;;;;;;;;6274664;22;19996;-79
2023/01/11 04:13:29;;;;;;;1.95;1.77;;;;;;;;;;6273660;22;20027;-79
2023/01/11 04:15:54;;;;;;;3.08;1.80;;;;;;;;;;6275106;22;19999;-80
2023/01/11 04:18:21;;;;;;;2.67;2.22;;;;;;;;;;6273505;22;20004;-79
2023/01/11 04:20:46;;;;;;;2.75;2.20;;;;;;;;;;6222825;22;20007;-79
2023/01/11 04:23:13;;;;;;;2.17;1.95;;;;;;;;;;6273466;22;20011;-81
2023/01/11 04:25:39;;;;;;;6.65;3.80;;;;;;;;;;6274279;22;20004;-80
2023/01/11 04:28:04;;;;;;;5.65;2.90;;;;;;;;;;6273560;22;20000;-80
2023/01/11 04:30:30;;;;;;;4.63;2.90;;;;;;;;;;6274966;22;20000;-81
2023/01/11 04:32:58;;;;;;;4.57;2.97;;;;;;;;;;6274595;22;20083;-80
2023/01/11 04:35:24;;;;;;;4.00;3.08;;;;;;;;;;6273501;22;20086;-81
2023/01/11 04:37:54;;;;;;;6.55;3.50;;;;;;;;;;6275013;22;20030;-80
2023/01/11 04:40:19;;;;;;;5.07;3.25;;;;;;;;;;6274615;22;20000;-80
2023/01/11 04:42:45;;;;;;;7.50;3.83;;;;;;;;;;6274679;22;20051;-81
2023/01/11 04:45:11;;;;;;;5.47;3.70;;;;;;;;;;6222290;22;20403;-80
2023/01/11 04:47:36;;;;;;;5.50;3.20;;;;;;;;;;6247809;22;20074;-80
2023/01/11 04:50:01;;;;;;;3.67;2.92;;;;;;;;;;6222728;22;20000;-80
2023/01/11 04:52:27;;;;;;;5.22;3.55;;;;;;;;;;6223603;22;19996;-79
2023/01/11 04:54:52;;;;;;;7.00;3.05;;;;;;;;;;6274580;22;20006;-80
2023/01/11 04:57:18;;;;;;;5.47;2.45;;;;;;;;;;6223036;22;19999;-80
2023/01/11 04:59:45;;;;;;;4.43;2.90;;;;;;;;;;6247780;22;19996;-80
2023/01/11 05:02:11;;;;;;;4.47;3.25;;;;;;;;;;6274637;22;20006;-80
2023/01/11 05:04:37;;;;;;;3.10;2.50;;;;;;;;;;6222354;22;20139;-80
2023/01/11 05:07:02;;;;;;;4.10;2.58;;;;;;;;;;6247675;22;20004;-80
2023/01/11 05:09:27;;;;;;;4.65;2.72;;;;;;;;;;6247230;22;20038;-80
2023/01/11 05:11:53;;;;;;;5.72;3.03;;;;;;;;;;6274747;22;20000;-80
2023/01/11 05:14:18;;;;;;;5.65;3.83;;;;;;;;;;6247975;22;19995;-80
2023/01/11 05:16:44;;;;;;;14.32;6.40;;;;;;;;;;6274451;22;20011;-80
2023/01/11 05:19:10;;;;;;;15.57;7.82;;;;;;;;;;6275787;22;19999;-80
2023/01/11 05:21:38;;;;;;;18.00;9.15;;;;;;;;;;6249728;22;20018;-80
2023/01/11 05:24:04;;;;;;;13.20;7.97;;;;;;;;;;6276253;22;20004;-80
2023/01/11 05:26:31;;;;;;;14.48;6.82;;;;;;;;;;6224297;22;20426;-81
2023/01/11 05:28:58;;;;;;;16.58;8.32;;;;;;;;;;6224986;22;20006;-84
2023/01/11 05:31:24;;;;;;;11.27;5.90;;;;;;;;;;6249862;22;20014;-86
2023/01/11 05:33:49;;;;;;;15.65;8.43;;;;;;;;;;6249592;22;20038;-83
2023/01/11 05:36:18;;;;;;;12.80;8.75;;;;;;;;;;6276560;22;20336;-83
2023/01/11 05:38:47;;;;;;;14.50;8.90;;;;;;;;;;6248584;22;20468;-82
2023/01/11 05:41:13;;;;;;;13.60;7.93;;;;;;;;;;6223817;22;20018;-83
2023/01/11 05:46:26;;;;;;;17.15;9.35;;;;;;;;;;6255098;22;20015;-83
2023/01/11 05:48:53;;;;;;;18.10;10.07;;;;;;;;;;6281640;22;20000;-82
2023/01/11 05:51:18;;;;;;;21.13;11.07;;;;;;;;;;6284502;22;20011;-83
2023/01/11 05:53:44;;;;;;;16.88;9.63;;;;;;;;;;6277174;22;19999;-82
2023/01/11 05:58:54;;;;;;;10.85;6.50;;;;;;;;;;6266463;22;20287;-83
2023/01/11 06:01:20;;;;;;;11.65;5.97;;;;;;;;;;6237458;22;20012;-79
2023/01/11 06:03:48;;;;;;;10.60;6.10;;;;;;;;;;6265082;22;20004;-78
2023/01/11 06:06:14;;;;;;;14.13;7.20;;;;;;;;;;6268093;22;20571;-78
2023/01/11 06:08:40;;;;;;;20.20;11.07;;;;;;;;;;6265673;22;20057;-78
2023/01/11 06:11:05;;;;;;;21.35;10.00;;;;;;;;;;6268878;22;20083;-79
2023/01/11 06:13:32;;;;;;;15.32;8.50;;;;;;;;;;6267510;22;20425;-79
2023/01/11 06:16:08;;;;;;;12.93;7.93;;;;;;;;;;6269017;22;20371;-79
2023/01/11 06:18:36;;;;;;;18.33;7.50;;;;;;;;;;6268746;22;20072;-77
2023/01/11 06:21:01;;;;;;;20.27;9.75;;;;;;;;;;6266423;22;20426;-79
2023/01/11 06:23:28;;;;;;;25.23;11.27;;;;;;;;;;6266811;22;20000;-79
2023/01/11 06:25:54;;;;;;;36.78;19.00;;;;;;;;;;6267038;22;20054;-78
2023/01/11 06:28:20;;;;;;;34.95;15.55;;;;;;;;;;6266170;22;20043;-77
2023/01/11 06:30:52;;;;;;;35.90;17.33;;;;;;;;;;6241873;22;20126;-80
2023/01/11 06:33:18;;;;;;;41.47;17.73;;;;;;;;;;6269098;22;20008;-79
2023/01/11 06:35:43;;;;;;;27.77;13.20;;;;;;;;;;6269260;22;20004;-78
2023/01/11 06:38:10;;;;;;;25.40;13.32;;;;;;;;;;6271994;22;20011;-78
2023/01/11 06:40:36;;;;;;;25.67;13.23;;;;;;;;;;6272817;22;19996;-78
2023/01/11 06:43:02;;;;;;;20.88;9.82;;;;;;;;;;6270250;22;20069;-79
2023/01/11 06:45:28;;;;;;;12.75;6.78;;;;;;;;;;6270430;22;20066;-79
2023/01/11 06:47:54;;;;;;;20.13;10.73;;;;;;;;;;6270651;22;20488;-79
2023/01/11 06:50:20;;;;;;;18.25;8.80;;;;;;;;;;6267767;22;20061;-79
2023/01/11 06:53:05;;;;;;;18.92;8.48;;;;;;;;;;6266561;22;20003;-78
2023/01/11 06:55:30;;;;;;;15.90;8.02;;;;;;;;;;6242224;22;20095;-77
2023/01/11 06:57:59;;;;;;;22.30;11.40;;;;;;;;;;6268975;22;20410;-78
2023/01/11 07:00:27;;;;;;;14.85;8.35;;;;;;;;;;6268884;22;20006;-80
2023/01/11 07:02:53;;;;;;;19.85;13.30;;;;;;;;;;6268992;22;20487;-80
2023/01/11 07:05:18;;;;;;;32.75;18.58;;;;;;;;;;6273597;22;20414;-81
2023/01/11 07:07:44;;;;;;;33.30;17.48;;;;;;;;;;6271309;22;20406;-81
2023/01/11 07:10:15;;;;;;;14.43;8.77;;;;;;;;;;6270978;22;20063;-79
2023/01/11 07:12:41;;;;;;;11.60;7.07;;;;;;;;;;6270833;22;20461;-80
2023/01/11 07:15:07;;;;;;;7.78;5.10;;;;;;;;;;6267899;22;20000;-80
2023/01/11 07:17:34;;;;;;;9.52;4.72;;;;;;;;;;6271215;22;20010;-79
2023/01/11 07:20:00;;;;;;;12.05;7.07;;;;;;;;;;6268014;22;20128;-80
2023/01/11 07:22:26;;;;;;;12.07;6.07;;;;;;;;;;6267074;22;20011;-78
2023/01/11 07:24:51;;;;;;;10.50;4.75;;;;;;;;;;6269138;22;20003;-78
2023/01/11 07:27:20;;;;;;;7.57;3.90;;;;;;;;;;6269025;22;20052;-77
2023/01/11 07:29:46;;;;;;;6.20;3.90;;;;;;;;;;6271575;22;20494;-77
2023/01/11 07:32:12;;;;;;;9.13;3.80;;;;;;;;;;6271246;22;20012;-78
2023/01/11 07:34:37;;;;;;;7.97;4.80;;;;;;;;;;6245674;22;20426;-79
2023/01/11 07:37:03;;;;;;;9.32;4.60;;;;;;;;;;6273844;22;20057;-79
2023/01/11 07:39:29;;;;;;;9.23;4.88;;;;;;;;;;6271240;22;20011;-78
2023/01/11 07:44:39;;;;;;;14.13;6.63;;;;;;;;;;6273480;22;20014;-79
2023/01/11 07:47:04;;;;;;;10.77;5.88;;;;;;;;;;6272765;22;20027;-79
2023/01/11 07:49:31;;;;;;;11.50;5.90;;;;;;;;;;6272383;22;20069;-78
2023/01/11 07:51:59;;;;;;;13.73;6.93;;;;;;;;;;6244635;22;20094;-78
2023/01/11 07:54:25;;;;;;;8.77;5.05;;;;;;;;;;6272584;22;20049;-79
2023/01/11 07:56:50;;;;;;;8.30;5.07;;;;;;;;;;6273217;22;20000;-78
2023/01/11 07:59:16;;;;;;;8.75;5.55;;;;;;;;;;6243847;22;20074;-79
2023/01/11 08:01:41;;;;;;;13.35;8.30;;;;;;;;;;6272506;22;20307;-79
2023/01/11 08:04:10;;;;;;;14.32;7.57;;;;;;;;;;6271786;22;20433;-78
2023/01/11 08:06:36;;;;;;;11.75;6.85;;;;;;;;;;6246004;22;20572;-79
2023/01/11 08:09:02;;;;;;;8.45;5.85;;;;;;;;;;6273569;22;20046;-78
2023/01/11 08:16:55;;;;;;;7.82;5.10;;;;;;;;;;6274626;22;20011;-77
2023/01/11 08:19:20;;;;;;;11.75;6.47;;;;;;;;;;6272676;22;20004;-78
2023/01/11 08:21:46;;;;;;;11.30;6.40;;;;;;;;;;6272976;22;20369;-77
2023/01/11 08:24:11;;;;;;;17.70;9.15;;;;;;;;;;6272216;22;19999;-78
2023/01/11 08:26:37;;;;;;;15.57;10.57;;;;;;;;;;6274011;22;20011;-77
2023/01/11 08:29:10;;;;;;;27.75;17.30;;;;;;;;;;6273606;22;20006;-80
2023/01/11 08:31:36;;;;;;;22.40;13.65;;;;;;;;;;6271593;22;20084;-77
2023/01/11 08:34:01;;;;;;;12.85;5.70;;;;;;;;;;6273215;22;20034;-79
2023/01/11 08:36:27;;;;;;;13.70;6.38;;;;;;;;;;6270136;22;20031;-82
2023/01/11 08:38:54;;;;;;;17.40;7.13;;;;;;;;;;6245160;22;20008;-81
2023/01/11 08:41:20;;;;;;;23.10;10.75;;;;;;;;;;6244901;22;20031;-81
2023/01/11 08:43:46;;;;;;;20.17;10.32;;;;;;;;;;6269007;22;20012;-80
2023/01/11 08:46:11;;;;;;;12.98;7.75;;;;;;;;;;6242733;22;20014;-81
2023/01/11 08:48:37;;;;;;;12.10;6.03;;;;;;;;;;6219834;22;20083;-82
2023/01/11 08:51:02;;;;;;;29.63;10.95;;;;;;;;;;6269069;22;20336;-79
2023/01/11 08:53:28;;;;;;;13.50;6.40;;;;;;;;;;6265337;22;20433;-80
2023/01/11 08:56:04;;;;;;;15.63;7.80;;;;;;;;;;6266189;22;20070;-81
2023/01/11 08:58:29;;;;;;;17.73;8.55;;;;;;;;;;6214686;22;20007;-78
2023/01/11 09:01:01;;;;;;;19.10;8.18;;;;;;;;;;6266406;22;20056;-79
2023/01/11 09:03:27;;;;;;;9.80;5.25;;;;;;;;;;6265133;22;20014;-79
2023/01/11 09:05:55;;;;;;;17.40;7.65;;;;;;;;;;6267340;22;20214;-80
2023/01/11 09:08:21;;;;;;;26.15;13.68;;;;;;;;;;6268056;22;20047;-81
2023/01/11 09:10:46;;;;;;;16.33;7.97;;;;;;;;;;6271187;22;20004;-81
2023/01/11 09:13:12;;;;;;;12.55;7.45;;;;;;;;;;6272884;22;20438;-80
2023/01/11 09:15:37;;;;;;;17.40;11.73;;;;;;;;;;6271473;22;20450;-80
2023/01/11 09:18:03;;;;;;;10.75;6.70;;;;;;;;;;6271790;22;20026;-80
2023/01/11 09:20:29;;;;;;;12.98;6.93;;;;;;;;;;6247258;22;20004;-80
2023/01/11 09:22:55;;;;;;;10.98;5.60;;;;;;;;;;6196643;22;20012;-79
2023/01/11 09:25:20;;;;;;;9.50;5.82;;;;;;;;;;6274237;22;20007;-79
2023/01/11 09:27:47;;;;;;;12.07;6.85;;;;;;;;;;6274685;22;20004;-79
2023/01/11 09:30:14;;;;;;;10.00;4.25;;;;;;;;;;6274067;22;20004;-82
2023/01/11 09:32:40;;;;;;;7.00;4.50;;;;;;;;;;6274508;22;20004;-80
2023/01/11 09:35:06;;;;;;;8.82;4.97;;;;;;;;;;6274800;22;20079;-81
2023/01/11 09:37:31;;;;;;;7.90;4.25;;;;;;;;;;6247389;22;20007;-80
2023/01/11 09:39:58;;;;;;;9.15;4.95;;;;;;;;;;6274019;22;20008;-82
2023/01/11 09:42:38;;;;;;;12.10;6.15;;;;;;;;;;6274262;22;20007;-78
2023/01/11 09:45:38;;;;;;;13.57;5.82;;;;;;;;;;6276504;22;20003;-79
2023/01/11 09:48:14;;;;;;;10.32;4.93;;;;;;;;;;6223089;22;20008;-80
2023/01/11 09:50:44;;;;;;;14.63;7.30;;;;;;;;;;6274237;22;20377;-80
2023/01/11 09:53:49;;;;;;;12.07;6.80;;;;;;;;;;6246255;22;20490;-78
2023/01/11 09:56:15;;;;;;;16.90;7.50;;;;;;;;;;6172841;22;20010;-81
2023/01/11 09:59:25;;;;;;;24.10;17.60;;;;;;;;;;6246178;22;20031;-81
2023/01/11 10:02:52;;;;;;;13.23;9.10;;;;;;;;;;6127393;23;20014;-80
2023/01/11 10:05:42;;;;;;;6.80;5.03;;;;;;;;;;6195033;22;20022;-80
2023/01/11 10:08:32;;;;;;;;;;;;;;;;;;6248216;22;20004;-79
2023/01/11 10:11:06;;;;;;;9.02;4.30;;;;;;;;;;6275178;22;20322;-80
2023/01/11 10:13:48;;;;;;;6.00;4.15;;;;;;;;;;6223376;22;20031;-79
2023/01/11 10:16:17;;;;;;;13.60;7.22;;;;;;;;;;6225072;22;20011;-80
2023/01/11 10:19:25;;;;;;;38.50;16.13;;;;;;;;;;6275279;22;20007;-80
2023/01/11 10:21:53;;;;;;;15.23;7.80;;;;;;;;;;6262949;22;20003;-78
2023/01/11 10:24:31;;;;;;;15.90;9.68;;;;;;;;;;6263049;22;20006;-83
2023/01/11 10:26:57;;;;;;;20.17;13.05;;;;;;;;;;6266676;22;20001;-81
2023/01/11 10:29:39;;;;;;;16.50;9.05;;;;;;;;;;6239622;22;20019;-80
2023/01/11 10:32:32;;;;;;;16.05;9.55;;;;;;;;;;6295191;22;20003;-80
2023/01/11 10:35:16;;;;;;;11.23;7.13;;;;;;;;;;6246150;22;20122;-81
2023/01/11 10:38:42;;;;;;;17.02;9.35;;;;;;;;;;6239809;22;20084;-82
2023/01/11 10:43:58;;;;;;;35.05;21.38;;;;;;;;;;6268990;22;20108;-81
2023/01/11 10:46:31;;;;;;;21.10;12.00;;;;;;;;;;6274091;22;20090;-80
2023/01/11 10:49:12;;;;;;;19.65;10.55;;;;;;;;;;6250938;22;20004;-81
2023/01/11 10:51:42;;;;;;;11.50;7.40;;;;;;;;;;6272688;22;20015;-81
2023/01/11 10:54:17;;;;;;;11.10;7.03;;;;;;;;;;6270998;22;19999;-80
2023/01/11 10:57:01;;;;;;;14.05;7.32;;;;;;;;;;6274261;22;20061;-80
2023/01/11 10:59:40;;;;;;;17.27;9.00;;;;;;;;;;6251963;22;20095;-82
2023/01/11 11:02:45;;;;;;;20.52;11.48;;;;;;;;;;6271630;22;20007;-80
2023/01/11 11:05:20;;;;;;;19.20;10.70;;;;;;;;;;6271320;22;20032;-81
2023/01/11 11:07:58;;;;;;;12.95;7.88;;;;;;;;;;6271775;22;20026;-80
2023/01/11 11:10:51;;;;;;;14.18;8.80;;;;;;;;;;6246202;22;20004;-83
2023/01/11 11:13:27;;;;;;;14.48;8.38;;;;;;;;;;6271272;22;20030;-82
2023/01/11 11:15:59;;;;;;;11.50;6.20;;;;;;;;;;6267705;22;20019;-81
2023/01/11 11:18:24;;;;;;;12.25;6.28;;;;;;;;;;6247040;22;20004;-81
2023/01/11 11:20:50;;;;;;;13.82;8.15;;;;;;;;;;6272340;22;20057;-80
2023/01/11 11:23:17;;;;;;;12.85;7.97;;;;;;;;;;6273511;22;20015;-79
2023/01/11 11:25:48;;;;;;;17.13;9.68;;;;;;;;;;6244741;22;20007;-80
2023/01/11 11:28:13;;;;;;;15.93;9.38;;;;;;;;;;6272132;22;20061;-82
2023/01/11 11:30:43;;;;;;;15.80;9.85;;;;;;;;;;6272686;22;20007;-82
2023/01/11 11:33:36;;;;;;;13.50;7.93;;;;;;;;;;6246656;22;20053;-80
2023/01/11 11:36:07;;;;;;;17.13;9.65;;;;;;;;;;6273690;22;20003;-81
2023/01/11 11:39:07;;;;;;;19.60;11.13;;;;;;;;;;6223720;22;20011;-82
2023/01/11 11:41:47;;;;;;;24.25;10.60;;;;;;;;;;6214825;22;20099;-82
2023/01/11 11:44:23;;;;;;;20.25;10.25;;;;;;;;;;6267312;22;20004;-79
2023/01/11 11:47:21;;;;;;;14.80;9.23;;;;;;;;;;6242483;22;20479;-80
2023/01/11 11:49:47;;;;;;;13.75;9.13;;;;;;;;;;6201106;22;20448;-80
2023/01/11 11:52:14;;;;;;;13.98;8.90;;;;;;;;;;6267697;22;20004;-81
2023/01/11 11:54:48;;;;;;;17.15;9.63;;;;;;;;;;6242145;22;20417;-81
2023/01/11 11:57:25;;;;;;;16.02;9.32;;;;;;;;;;6242969;22;20315;-80
2023/01/11 12:00:00;;;;;;;13.15;8.20;;;;;;;;;;6244339;22;20094;-81
2023/01/11 12:02:30;;;;;;;11.85;7.15;;;;;;;;;;6245864;22;20012;-80
2023/01/11 12:04:56;;;;;;;;;;;;;;;;;;6269836;22;20003;-80
2023/01/11 12:07:23;;;;;;;10.27;6.25;;;;;;;;;;6269550;22;19940;-82
2023/01/11 12:09:54;;;;;;;10.52;6.45;;;;;;;;;;6268425;22;20014;-77
2023/01/11 12:12:20;;;;;;;11.80;8.13;;;;;;;;;;6244343;22;20035;-78
2023/01/11 12:15:04;;;;;;;16.98;9.60;;;;;;;;;;6243649;22;20561;-79
2023/01/11 12:17:29;;;;;;;18.75;9.38;;;;;;;;;;6271541;22;20004;-80
2023/01/11 12:19:55;;;;;;;15.07;8.70;;;;;;;;;;6272005;22;20054;-78
2023/01/11 12:22:22;;;;;;;13.68;8.05;;;;;;;;;;6249613;22;20062;-84
2023/01/11 12:25:13;;;;;;;14.88;8.60;;;;;;;;;;6272569;22;20050;-81
2023/01/11 12:28:12;;;;;;;29.45;11.45;;;;;;;;;;6267764;22;20007;-80
2023/01/11 12:30:56;;;;;;;14.07;7.30;;;;;;;;;;6215177;22;20003;-82
2023/01/11 12:33:52;;;;;;;24.05;12.30;;;;;;;;;;6267001;22;20445;-77
2023/01/11 12:36:53;;;;;;;23.70;12.50;;;;;;;;;;6268066;22;20105;-78
2023/01/11 12:39:30;;;;;;;35.50;20.55;;;;;;;;;;6270881;22;20015;-77
2023/01/11 12:42:33;;;;;;;30.38;16.70;;;;;;;;;;6269982;22;20449;-80
2023/01/11 12:45:08;;;;;;;26.80;15.10;;;;;;;;;;6268918;22;20015;-77
2023/01/11 12:48:15;;;;;;;15.20;8.63;;;;;;;;;;6241935;22;19999;-77
2023/01/11 12:50:59;;;;;;;25.92;11.70;;;;;;;;;;6115159;23;20028;-76
2023/01/11 12:53:35;;;;;;;18.20;9.13;;;;;;;;;;6235067;22;20004;-77
2023/01/11 12:56:21;;;;;;;15.38;9.68;;;;;;;;;;6240029;22;20462;-78
2023/01/11 12:58:51;;;;;;;11.48;6.90;;;;;;;;;;6269206;22;20034;-82
2023/01/11 13:01:19;;;;;;;11.97;7.70;;;;;;;;;;6244088;22;20405;-78
2023/01/11 13:04:00;;;;;;;11.13;6.40;;;;;;;;;;6272339;22;20418;-81
2023/01/11 13:06:37;;;;;;;10.65;6.40;;;;;;;;;;6222575;22;20061;-79
2023/01/11 13:09:50;;;;;;;14.07;7.35;;;;;;;;;;6273857;22;20004;-77
2023/01/11 13:12:20;;;;;;;18.67;8.80;;;;;;;;;;6241481;22;20026;-80
2023/01/11 13:15:24;;;;;;;17.13;9.30;;;;;;;;;;6222428;22;20003;-80
2023/01/11 13:18:35;;;;;;;19.00;9.40;;;;;;;;;;6138871;22;20470;-79
2023/01/11 13:21:26;;;;;;;18.77;11.13;;;;;;;;;;6088517;23;20480;-79
2023/01/11 13:23:53;;;;;;;20.30;10.65;;;;;;;;;;6265446;22;20339;-79
2023/01/11 13:26:25;;;;;;;19.77;10.05;;;;;;;;;;6219661;22;20338;-79
2023/01/11 13:29:03;;;;;;;12.38;7.88;;;;;;;;;;6220710;22;20004;-78
2023/01/11 13:31:30;;;;;;;14.02;8.27;;;;;;;;;;6222248;22;20069;-79
2023/01/11 13:34:25;;;;;;;19.50;11.05;;;;;;;;;;6220897;22;20000;-79
2023/01/11 13:36:58;;;;;;;18.83;11.65;;;;;;;;;;6228706;22;20023;-80
2023/01/11 13:40:11;;;;;;;31.23;16.48;;;;;;;;;;6220005;22;20000;-79
2023/01/11 13:42:41;;;;;;;105.43;51.50;;;;;;;;;;6118820;23;20096;-79
2023/01/11 13:45:26;;;;;;;18.83;11.18;;;;;;;;;;6199608;22;20012;-80
2023/01/11 13:48:15;;;;;;;24.38;13.68;;;;;;;;;;6246005;22;20023;-79
2023/01/11 13:50:46;;;;;;;22.98;12.48;;;;;;;;;;6221412;22;20100;-80
2023/01/11 13:53:50;;;;;;;20.20;11.57;;;;;;;;;;6223466;22;20357;-81
2023/01/11 13:56:26;;;;;;;24.33;11.57;;;;;;;;;;6252995;22;20011;-80
2023/01/11 13:59:09;;;;;;;26.90;13.10;;;;;;;;;;6249636;22;19996;-78
2023/01/11 14:01:45;;;;;;;26.40;14.43;;;;;;;;;;6250230;22;20411;-79
2023/01/11 14:04:15;;;;;;;29.70;13.98;;;;;;;;;;6275017;22;20004;-79
2023/01/11 14:06:53;;;;;;;50.83;22.30;;;;;;;;;;6247919;22;20418;-78
2023/01/11 14:09:30;;;;;;;30.40;16.55;;;;;;;;;;6275464;22;20004;-79
2023/01/11 14:12:14;;;;;;;28.10;13.95;;;;;;;;;;6273575;22;20090;-79
2023/01/11 14:14:58;;;;;;;56.95;22.30;;;;;;;;;;6273933;22;20439;-78
2023/01/11 14:17:42;;;;;;;69.75;29.77;;;;;;;;;;6273982;22;19996;-79
2023/01/11 14:20:29;;;;;;;24.17;12.55;;;;;;;;;;6246340;22;20035;-79
2023/01/11 14:22:57;;;;;;;22.98;12.55;;;;;;;;;;6273864;22;20046;-80
2023/01/11 14:25:29;;;;;;;35.47;16.77;;;;;;;;;;6273903;22;20003;-79
2023/01/11 14:28:05;;;;;;;57.17;30.42;;;;;;;;;;6222307;22;19996;-78
2023/01/11 14:30:41;;;;;;;41.65;20.35;;;;;;;;;;6223015;22;20027;-79
2023/01/11 14:33:31;;;;;;;41.80;23.77;;;;;;;;;;6273985;22;20023;-78
2023/01/11 14:36:31;;;;;;;42.53;20.50;;;;;;;;;;6273853;22;20004;-79
2023/01/11 14:39:16;;;;;;;;;;;;;;;;;;6227424;22;20000;-80
2023/01/11 14:42:11;;;;;;;38.63;19.05;;;;;;;;;;6275765;22;20262;-78
2023/01/11 14:44:56;;;;;;;34.97;18.15;;;;;;;;;;6216467;22;20051;-79
2023/01/11 14:48:09;;;;;;;42.88;18.52;;;;;;;;;;6275756;22;20430;-79
2023/01/11 14:50:46;;;;;;;43.55;20.80;;;;;;;;;;6242319;22;20010;-80
2023/01/11 14:53:18;;;;;;;48.92;22.08;;;;;;;;;;6248535;22;20431;-79
2023/01/11 14:55:45;;;;;;;42.95;22.23;;;;;;;;;;6223861;22;20011;-77
2023/01/11 14:58:30;;;;;;;49.33;25.15;;;;;;;;;;6223669;22;20057;-78
2023/01/11 15:00:55;;;;;;;63.95;28.58;;;;;;;;;;6248511;22;20046;-78
2023/01/11 15:03:20;;;;;;;60.45;28.00;;;;;;;;;;6275149;22;20003;-78
2023/01/11 15:05:53;;;;;;;69.72;29.15;;;;;;;;;;6248435;22;20039;-77
2023/01/11 15:08:22;;;;;;;80.65;34.97;;;;;;;;;;6249928;22;20011;-78
2023/01/11 15:11:00;;;;;;;73.75;32.75;;;;;;;;;;6248747;22;20049;-78
2023/01/11 15:13:29;;;;;;;80.38;37.13;;;;;;;;;;6223023;22;20020;-79
2023/01/11 15:19:30;;;;;;;90.65;44.03;;;;;;;;;;6274813;22;20114;-78
2023/01/11 15:21:57;;;;;;;80.53;38.42;;;;;;;;;;6247786;22;20265;-78
2023/01/11 15:24:28;;;;;;;78.47;37.53;;;;;;;;;;6248291;22;20000;-79
2023/01/11 15:26:55;;;;;;;76.50;39.58;;;;;;;;;;6275213;22;19992;-78
2023/01/11 15:29:32;;;;;;;82.97;42.63;;;;;;;;;;6223184;22;20098;-78
2023/01/11 15:32:00;;;;;;;123.05;55.38;;;;;;;;;;6247517;22;20509;-78
2023/01/11 15:34:27;;;;;;;108.45;52.65;;;;;;;;;;6275305;22;20034;-79
2023/01/11 15:36:54;;;;;;;77.13;41.05;;;;;;;;;;6248072;22;20000;-78
2023/01/11 15:39:38;;;;;;;67.70;35.25;;;;;;;;;;6222894;22;20026;-78
2023/01/11 15:42:15;;;;;;;69.50;36.08;;;;;;;;;;6274403;22;20000;-79
2023/01/11 15:45:10;;;;;;;78.95;38.45;;;;;;;;;;6274818;22;20090;-80
2023/01/11 15:48:20;;;;;;;69.97;36.15;;;;;;;;;;6247725;22;20008;-78
2023/01/11 15:50:51;;;;;;;80.60;40.08;;;;;;;;;;6247684;22;20061;-79
2023/01/11 15:53:47;;;;;;;81.40;40.53;;;;;;;;;;6275009;22;20003;-78
2023/01/11 15:56:18;;;;;;;84.00;43.17;;;;;;;;;;6247519;22;20008;-78
2023/01/11 15:59:21;;;;;;;106.07;51.28;;;;;;;;;;6248816;22;19999;-78
2023/01/11 16:02:17;;;;;;;101.13;49.50;;;;;;;;;;6274053;22;20008;-79
2023/01/11 16:04:46;;;;;;;113.53;55.53;;;;;;;;;;6275081;22;20346;-78
2023/01/11 16:07:47;;;;;;;129.67;64.83;;;;;;;;;;6248538;22;19996;-79
2023/01/11 16:10:22;;;;;;;142.07;72.68;;;;;;;;;;6266871;22;20035;-78
2023/01/11 16:13:26;;;;;;;141.38;74.22;;;;;;;;;;6274801;22;20000;-78
2023/01/11 16:16:21;;;;;;;141.10;73.68;;;;;;;;;;6267455;22;20014;-79
2023/01/11 16:19:04;;;;;;;174.30;80.53;;;;;;;;;;6274546;22;20083;-78
2023/01/11 16:21:36;;;;;;;146.30;72.70;;;;;;;;;;6275556;22;20004;-78
2023/01/11 16:24:09;;;;;;;125.05;62.45;;;;;;;;;;6274957;22;20053;-78
2023/01/11 16:26:35;;;;;;;111.82;56.13;;;;;;;;;;6247390;22;20141;-78